createdAt,value
2022-12-31T00:00:24.120Z,100076.42
2022-12-31T00:02:55.812Z,100074.42
2022-12-31T00:05:27.726Z,100069.97
2022-12-31T00:07:59.528Z,100064.39
2022-12-31T00:10:31.366Z,100064.34
2022-12-31T00:13:03.248Z,100068.27
2022-12-31T00:15:35.222Z,100067.11
2022-12-31T00:18:08.209Z,100069.42
2022-12-31T00:20:43.559Z,100061.08
2022-12-31T00:23:15.154Z,100058.27
2022-12-31T00:25:46.749Z,100057.11
2022-12-31T00:28:18.715Z,100055.48
2022-12-31T00:30:50.531Z,100052.27
2022-12-31T00:33:22.326Z,100051.51
2022-12-31T00:35:54.748Z,100048.26
2022-12-31T00:38:26.348Z,100050.79
2022-12-31T00:40:58.570Z,100050.04
2022-12-31T00:43:30.245Z,100045.52
2022-12-31T00:46:28.677Z,100038.77
2022-12-31T00:49:18.371Z,100030.52
2022-12-31T00:52:34.843Z,100029.93
2022-12-31T00:55:07.655Z,100026.36
2022-12-31T00:57:39.604Z,100021.50
2022-12-31T01:00:24.266Z,100021.51
2022-12-31T01:02:56.148Z,100024.58
2022-12-31T01:05:28.057Z,100015.83
2022-12-31T01:08:23.930Z,100015.23
2022-12-31T01:11:12.873Z,100016.64
2022-12-31T01:13:44.638Z,100011.35
2022-12-31T01:16:17.703Z,100014.78
2022-12-31T01:18:49.312Z,100011.73
2022-12-31T01:21:21.796Z,100003.27
2022-12-31T01:24:00.035Z,99996.73
2022-12-31T01:26:31.702Z,99991.73
2022-12-31T01:29:17.327Z,99993.02
2022-12-31T01:32:00.830Z,99995.13
2022-12-31T01:34:53.928Z,99997.10
2022-12-31T01:38:26.752Z,99989.19
2022-12-31T01:40:58.478Z,99980.84
2022-12-31T01:43:47.691Z,99974.20
2022-12-31T01:46:25.374Z,99970.98
2022-12-31T01:49:00.881Z,99970.81
2022-12-31T01:51:36.265Z,99967.11
2022-12-31T01:54:10.936Z,99965.69
2022-12-31T01:56:44.866Z,99969.56
2022-12-31T01:59:18.976Z,99969.45
2022-12-31T02:01:54.248Z,99968.98
2022-12-31T02:04:28.208Z,99960.25
2022-12-31T02:07:03.171Z,99953.32
2022-12-31T02:09:36.010Z,99951.63
2022-12-31T02:12:08.935Z,99947.38
2022-12-31T02:14:44.161Z,99943.33
2022-12-31T02:17:27.164Z,99935.20
2022-12-31T02:20:21.122Z,99928.35
2022-12-31T02:23:08.972Z,99924.09
2022-12-31T02:26:12.323Z,99927.35
2022-12-31T02:29:05.417Z,99927.95
2022-12-31T02:31:41.104Z,99927.52
2022-12-31T02:34:17.348Z,99932.71
2022-12-31T02:36:53.050Z,99940.35
2022-12-31T02:39:25.045Z,99945.46
2022-12-31T02:41:56.677Z,99950.99
2022-12-31T02:44:30.439Z,99948.46
2022-12-31T02:47:22.346Z,99945.98
2022-12-31T02:50:06.898Z,99940.38
2022-12-31T02:52:48.590Z,99932.27
2022-12-31T02:55:26.406Z,99933.56
2022-12-31T02:58:05.595Z,99932.12
2022-12-31T03:01:04.111Z,99933.90
2022-12-31T03:03:36.923Z,99931.95
2022-12-31T03:06:11.419Z,99936.66
2022-12-31T03:08:59.453Z,99934.20
2022-12-31T03:11:48.956Z,99938.33
2022-12-31T03:14:20.666Z,99946.55
2022-12-31T03:16:52.190Z,99945.94
2022-12-31T03:20:10.446Z,99941.16
2022-12-31T03:22:44.647Z,99938.00
2022-12-31T03:25:41.003Z,99934.36
2022-12-31T03:28:14.885Z,99930.68
2022-12-31T03:30:53.148Z,99937.73
2022-12-31T03:33:36.620Z,99934.38
2022-12-31T03:36:10.473Z,99931.87
2022-12-31T03:38:42.363Z,99927.66
2022-12-31T03:41:14.699Z,99923.56
2022-12-31T03:43:46.270Z,99926.13
2022-12-31T03:46:17.994Z,99933.40
2022-12-31T03:48:50.077Z,99937.89
2022-12-31T03:51:22.002Z,99947.96
2022-12-31T03:53:53.653Z,99952.20
2022-12-31T03:56:25.232Z,99957.33
2022-12-31T03:58:56.903Z,99950.60
2022-12-31T04:01:28.616Z,99949.94
2022-12-31T04:04:00.462Z,99954.52
2022-12-31T04:06:32.096Z,99954.73
2022-12-31T04:09:04.417Z,99954.03
2022-12-31T04:11:35.894Z,99955.32
2022-12-31T04:14:09.068Z,99960.59
2022-12-31T04:16:40.917Z,99963.72
2022-12-31T04:19:13.006Z,99959.58
2022-12-31T04:21:44.640Z,99958.14
2022-12-31T04:24:16.741Z,99960.39
2022-12-31T04:26:48.457Z,99963.60
2022-12-31T04:29:20.146Z,99963.84
2022-12-31T04:31:51.825Z,99955.60
2022-12-31T04:34:27.979Z,99950.52
2022-12-31T04:37:02.198Z,99942.25
2022-12-31T04:39:33.910Z,99940.83
2022-12-31T04:42:05.743Z,99940.88
2022-12-31T04:44:37.414Z,99957.21
2022-12-31T04:47:09.064Z,99959.14
2022-12-31T04:49:40.648Z,99961.70
2022-12-31T04:52:12.435Z,99969.95
2022-12-31T04:54:44.000Z,99970.48
2022-12-31T04:57:16.673Z,99965.84
2022-12-31T04:59:48.320Z,99968.02
2022-12-31T05:02:20.192Z,99965.27
2022-12-31T05:04:52.193Z,99969.02
2022-12-31T05:07:24.014Z,99968.23
2022-12-31T05:09:55.667Z,99969.16
2022-12-31T05:12:27.214Z,99964.14
2022-12-31T05:14:59.010Z,99953.92
2022-12-31T05:17:30.893Z,99946.58
2022-12-31T05:20:02.753Z,99949.92
2022-12-31T05:22:34.553Z,99951.73
2022-12-31T05:25:07.608Z,99955.27
2022-12-31T05:27:39.932Z,99952.55
2022-12-31T05:30:13.438Z,99946.64
2022-12-31T05:32:44.956Z,99947.86
2022-12-31T05:35:16.963Z,99945.52
2022-12-31T05:37:48.681Z,99953.58
2022-12-31T05:40:20.523Z,99954.94
2022-12-31T05:42:52.838Z,99959.15
2022-12-31T05:45:30.350Z,99947.73
2022-12-31T05:48:02.941Z,99943.81
2022-12-31T05:50:34.643Z,99936.73
2022-12-31T05:53:06.341Z,99945.04
2022-12-31T05:55:38.785Z,99951.36
2022-12-31T05:58:10.303Z,99953.86
2022-12-31T06:00:41.994Z,99957.25
2022-12-31T06:03:13.973Z,99952.92
2022-12-31T06:05:46.580Z,99951.03
2022-12-31T06:08:18.348Z,99950.89
2022-12-31T06:10:50.751Z,99952.33
2022-12-31T06:13:22.382Z,99956.65
2022-12-31T06:15:53.979Z,99962.19
2022-12-31T06:18:26.430Z,99959.45
2022-12-31T06:20:59.541Z,99948.44
2022-12-31T06:23:32.097Z,99954.70
2022-12-31T06:26:07.330Z,99959.38
2022-12-31T06:28:39.168Z,99963.03
2022-12-31T06:31:14.453Z,99960.84
2022-12-31T06:33:47.922Z,99964.73
2022-12-31T06:36:19.666Z,99973.69
2022-12-31T06:38:51.465Z,99977.50
2022-12-31T06:41:23.632Z,99980.77
2022-12-31T06:43:55.261Z,99971.42
2022-12-31T06:46:27.286Z,99964.32
2022-12-31T06:48:58.974Z,99958.58
2022-12-31T06:51:31.058Z,99956.27
2022-12-31T06:54:02.653Z,99959.01
2022-12-31T06:56:35.775Z,99960.19
2022-12-31T06:59:08.521Z,99971.61
2022-12-31T07:01:50.306Z,99972.20
2022-12-31T07:04:46.232Z,99975.98
2022-12-31T07:07:23.333Z,99987.31
2022-12-31T07:10:03.272Z,99991.33
2022-12-31T07:12:53.536Z,99998.61
2022-12-31T07:15:45.922Z,99999.95
2022-12-31T07:18:27.113Z,99998.88
2022-12-31T07:21:00.670Z,99994.26
2022-12-31T07:23:33.422Z,100005.47
2022-12-31T07:26:12.743Z,100001.26
2022-12-31T07:28:59.227Z,100001.98
2022-12-31T07:31:45.636Z,99994.45
2022-12-31T07:34:26.037Z,99996.16
2022-12-31T07:37:08.341Z,99993.96
2022-12-31T07:39:48.315Z,99997.69
2022-12-31T07:42:25.845Z,99999.27
2022-12-31T07:45:04.403Z,99991.41
2022-12-31T07:47:37.973Z,99992.34
2022-12-31T07:50:18.993Z,100003.23
2022-12-31T07:52:51.580Z,100005.85
2022-12-31T07:55:23.337Z,100011.77
2022-12-31T07:58:00.915Z,100015.41
2022-12-31T08:00:34.302Z,100021.27
2022-12-31T08:03:17.844Z,100022.21
2022-12-31T08:06:01.202Z,100032.49
2022-12-31T08:08:44.781Z,100031.70
2022-12-31T08:11:23.201Z,100019.44
2022-12-31T08:13:57.660Z,100020.31
2022-12-31T08:16:30.392Z,100017.42
2022-12-31T08:19:04.738Z,100015.77
2022-12-31T08:21:50.510Z,100019.63
2022-12-31T08:24:30.253Z,100030.05
2022-12-31T08:27:11.443Z,100029.35
2022-12-31T08:29:50.254Z,100027.16
2022-12-31T08:32:27.061Z,100028.98
2022-12-31T08:35:10.083Z,100027.09
2022-12-31T08:37:45.545Z,100030.62
2022-12-31T08:40:26.659Z,100032.95
2022-12-31T08:43:25.203Z,100028.75
2022-12-31T08:45:58.585Z,100024.83
2022-12-31T08:48:41.032Z,100009.77
2022-12-31T08:51:20.454Z,100001.70
2022-12-31T08:53:53.786Z,100016.10
2022-12-31T08:56:33.394Z,100022.38
2022-12-31T08:59:15.195Z,100026.66
2022-12-31T09:02:10.528Z,100032.46
2022-12-31T09:04:48.420Z,100032.52
2022-12-31T09:07:25.281Z,100031.03
2022-12-31T09:10:06.118Z,100029.88
2022-12-31T09:12:47.623Z,100032.36
2022-12-31T09:15:26.766Z,100031.48
2022-12-31T09:17:59.274Z,100025.48
2022-12-31T09:20:42.965Z,100024.09
2022-12-31T09:23:16.166Z,100033.77
2022-12-31T09:25:58.189Z,100028.46
2022-12-31T09:28:40.939Z,100027.88
2022-12-31T09:31:19.513Z,100020.29
2022-12-31T09:33:57.775Z,100020.77
2022-12-31T09:36:33.863Z,100022.36
2022-12-31T09:39:13.803Z,100026.44
2022-12-31T09:42:13.711Z,100031.16
2022-12-31T09:45:12.549Z,100006.09
2022-12-31T09:48:22.450Z,99995.81
2022-12-31T09:51:07.317Z,99989.98
2022-12-31T09:53:54.270Z,99984.27
2022-12-31T09:56:31.160Z,99984.83
2022-12-31T09:59:08.251Z,99976.89
2022-12-31T10:01:50.949Z,99975.02
2022-12-31T10:04:56.059Z,99968.17
2022-12-31T10:07:52.023Z,99969.49
2022-12-31T10:10:31.233Z,99977.83
2022-12-31T10:13:30.724Z,99980.03
2022-12-31T10:16:17.714Z,99967.39
2022-12-31T10:19:11.109Z,99968.66
2022-12-31T10:21:56.586Z,99960.86
2022-12-31T10:24:57.377Z,99964.72
2022-12-31T10:27:45.733Z,99962.39
2022-12-31T10:30:20.646Z,99960.09
2022-12-31T10:33:16.966Z,99957.05
2022-12-31T10:35:56.187Z,99955.65
2022-12-31T10:38:36.424Z,99949.99
2022-12-31T10:41:39.188Z,99948.28
2022-12-31T10:44:53.395Z,99944.84
2022-12-31T10:50:50.556Z,99943.73
2022-12-31T10:53:47.146Z,99934.39
2022-12-31T10:56:44.806Z,99931.31
2022-12-31T11:00:00.213Z,99921.79
2022-12-31T11:03:03.048Z,99924.54
2022-12-31T11:05:58.515Z,99925.84
2022-12-31T11:09:02.607Z,99932.72
2022-12-31T11:11:45.820Z,99931.00
2022-12-31T11:14:40.000Z,99926.56
2022-12-31T11:17:28.528Z,99920.88
2022-12-31T11:20:16.228Z,99923.73
2022-12-31T11:23:11.184Z,99919.71
2022-12-31T11:25:56.553Z,99917.88
2022-12-31T11:28:45.155Z,99908.71
2022-12-31T11:31:29.256Z,99917.20
2022-12-31T11:34:17.220Z,99923.92
2022-12-31T11:37:09.640Z,99916.60
2022-12-31T11:39:57.184Z,99904.08
2022-12-31T11:42:42.072Z,99909.83
2022-12-31T11:45:28.501Z,99904.30
2022-12-31T11:48:31.594Z,99900.22
2022-12-31T11:51:21.838Z,99898.14
2022-12-31T11:54:27.719Z,99902.86
2022-12-31T11:57:02.566Z,99891.61
2022-12-31T11:59:34.586Z,99881.50
2022-12-31T12:02:25.719Z,99884.51
2022-12-31T12:05:06.395Z,99886.98
2022-12-31T12:07:41.922Z,99885.20
2022-12-31T12:10:29.296Z,99879.86
2022-12-31T12:13:14.982Z,99874.30
2022-12-31T12:15:50.464Z,99878.55
2022-12-31T12:18:42.308Z,99877.91
2022-12-31T12:21:17.934Z,99879.06
2022-12-31T12:24:01.126Z,99873.77
2022-12-31T12:26:38.162Z,99868.52
2022-12-31T12:29:21.637Z,99864.43
2022-12-31T12:32:03.477Z,99856.14
2022-12-31T12:34:47.569Z,99857.02
2022-12-31T12:37:37.486Z,99850.23
2022-12-31T12:40:38.035Z,99853.27
2022-12-31T12:43:22.727Z,99849.06
2022-12-31T12:45:57.879Z,99852.88
2022-12-31T12:48:38.886Z,99848.66
2022-12-31T12:51:29.518Z,99853.83
2022-12-31T12:54:33.967Z,99859.17
2022-12-31T12:57:24.366Z,99851.73
2022-12-31T13:00:58.694Z,99846.73
2022-12-31T13:04:33.649Z,99857.02
2022-12-31T13:07:29.281Z,99860.48
2022-12-31T13:10:57.516Z,99847.88
2022-12-31T13:13:48.237Z,99855.80
2022-12-31T13:16:31.710Z,99851.63
2022-12-31T13:20:19.186Z,99850.30
2022-12-31T13:22:29.130Z,99843.11
2022-12-31T13:25:07.668Z,99843.59
2022-12-31T13:27:46.221Z,99853.08
2022-12-31T13:30:20.978Z,99846.23
2022-12-31T13:32:54.395Z,99844.71
2022-12-31T13:35:31.296Z,99840.70
2022-12-31T13:38:07.459Z,99847.19
2022-12-31T13:40:50.635Z,99845.35
2022-12-31T13:43:31.804Z,99861.27
2022-12-31T13:46:12.110Z,99861.65
2022-12-31T13:48:50.177Z,99862.22
2022-12-31T13:51:31.570Z,99864.80
2022-12-31T13:54:08.404Z,99853.11
2022-12-31T13:56:44.103Z,99856.86
2022-12-31T13:59:25.499Z,99862.23
2022-12-31T14:02:11.649Z,99861.14
2022-12-31T14:04:54.987Z,99868.87
2022-12-31T14:07:45.597Z,99875.40
2022-12-31T14:10:25.596Z,99887.05
2022-12-31T14:13:09.606Z,99886.66
2022-12-31T14:15:48.946Z,99895.14
2022-12-31T14:18:38.777Z,99883.61
2022-12-31T14:21:20.650Z,99883.98
2022-12-31T14:24:10.902Z,99877.39
2022-12-31T14:26:47.467Z,99880.41
2022-12-31T14:29:40.964Z,99884.36
2022-12-31T14:32:44.698Z,99880.81
2022-12-31T14:35:43.202Z,99876.41
2022-12-31T14:38:26.609Z,99886.45
2022-12-31T14:41:11.742Z,99880.30
2022-12-31T14:43:47.475Z,99881.92
2022-12-31T14:46:32.668Z,99883.33
2022-12-31T14:49:16.987Z,99875.09
2022-12-31T14:51:49.937Z,99876.37
2022-12-31T14:54:35.895Z,99877.89
2022-12-31T14:57:25.236Z,99879.84
2022-12-31T15:00:03.577Z,99873.13
2022-12-31T15:02:55.982Z,99883.86
2022-12-31T15:05:45.728Z,99879.27
2022-12-31T15:08:43.437Z,99879.44
2022-12-31T15:11:40.604Z,99868.77
2022-12-31T15:14:37.547Z,99871.08
2022-12-31T15:17:18.760Z,99878.13
2022-12-31T15:20:34.717Z,99888.90
2022-12-31T15:23:14.195Z,99894.56
2022-12-31T15:25:52.004Z,99886.81
2022-12-31T15:28:33.437Z,99884.80
2022-12-31T15:31:15.946Z,99887.84
2022-12-31T15:34:01.423Z,99891.82
2022-12-31T15:36:35.909Z,99897.27
2022-12-31T15:39:37.960Z,99891.73
2022-12-31T15:42:38.725Z,99896.52
2022-12-31T15:45:27.150Z,99905.70
2022-12-31T15:48:07.899Z,99903.91
2022-12-31T15:51:21.547Z,99903.90
2022-12-31T15:53:52.512Z,99899.89
2022-12-31T15:56:31.973Z,99898.68
2022-12-31T15:59:06.048Z,99898.92
2022-12-31T16:01:42.298Z,99899.57
2022-12-31T16:04:23.661Z,99907.02
2022-12-31T16:06:56.434Z,99913.23
2022-12-31T16:09:30.869Z,99916.59
2022-12-31T16:12:03.963Z,99917.36
2022-12-31T16:14:41.827Z,99917.96
2022-12-31T16:17:29.725Z,99925.45
2022-12-31T16:20:04.079Z,99929.04
2022-12-31T16:22:43.035Z,99934.33
2022-12-31T16:25:37.293Z,99930.03
2022-12-31T16:28:09.182Z,99935.96
2022-12-31T16:30:44.432Z,99932.42
2022-12-31T16:33:27.199Z,99924.98
2022-12-31T16:36:09.194Z,99928.83
2022-12-31T16:38:41.882Z,99931.20
2022-12-31T16:41:28.860Z,99936.98
2022-12-31T16:44:00.895Z,99928.59
2022-12-31T16:46:35.816Z,99929.95
2022-12-31T16:49:24.258Z,99922.10
2022-12-31T16:52:03.656Z,99921.95
2022-12-31T16:54:48.689Z,99924.81
2022-12-31T16:57:24.746Z,99928.37
2022-12-31T17:00:01.260Z,99925.80
2022-12-31T17:02:41.175Z,99932.86
2022-12-31T17:05:36.291Z,99928.98
2022-12-31T17:13:00.995Z,99938.22
2022-12-31T17:16:21.871Z,99920.64
2022-12-31T17:22:36.355Z,99923.65
2022-12-31T17:25:22.846Z,99931.95
2022-12-31T17:28:25.118Z,99934.56
2022-12-31T17:31:27.384Z,99946.64
2022-12-31T17:34:35.975Z,99949.56
2022-12-31T17:38:05.540Z,99942.02
2022-12-31T17:43:42.197Z,99945.30
2022-12-31T17:46:20.368Z,99949.39
2022-12-31T17:48:58.104Z,99956.67
2022-12-31T17:51:32.608Z,99964.54
2022-12-31T17:54:07.972Z,99957.30
2022-12-31T17:56:39.981Z,99968.08
2022-12-31T17:59:16.241Z,99968.77
2022-12-31T18:01:48.940Z,99959.61
2022-12-31T18:04:22.430Z,99951.49
2022-12-31T18:06:54.465Z,99962.80
2022-12-31T18:09:26.454Z,99957.33
2022-12-31T18:12:01.699Z,99962.80
2022-12-31T18:14:36.426Z,99967.20
2022-12-31T18:17:14.345Z,99957.68
2022-12-31T18:20:04.204Z,99964.73
2022-12-31T18:22:39.046Z,99969.18
2022-12-31T18:25:24.363Z,99970.55
2022-12-31T18:28:00.536Z,99963.13
2022-12-31T18:30:33.249Z,99964.61
2022-12-31T18:33:06.701Z,99970.86
2022-12-31T18:36:07.704Z,99972.68
2022-12-31T18:38:31.460Z,99977.47
2022-12-31T18:41:03.669Z,99974.77
2022-12-31T18:43:35.601Z,99979.58
2022-12-31T18:46:08.146Z,99978.95
2022-12-31T18:48:41.820Z,99991.02
2022-12-31T18:51:17.818Z,99987.80
2022-12-31T18:53:49.760Z,99988.59
2022-12-31T18:56:25.503Z,99987.98
2022-12-31T18:58:57.163Z,99983.61
2022-12-31T19:01:35.320Z,99985.73
2022-12-31T19:04:13.527Z,99989.90
2022-12-31T19:06:49.037Z,99989.36
2022-12-31T19:09:44.102Z,99992.00
2022-12-31T19:12:15.984Z,99995.45
2022-12-31T19:14:47.851Z,99997.21
2022-12-31T19:17:19.665Z,99998.85
2022-12-31T19:19:51.234Z,99995.73
2022-12-31T19:22:22.927Z,100004.95
2022-12-31T19:24:55.687Z,100007.61
2022-12-31T19:27:27.890Z,100001.14
2022-12-31T19:30:01.665Z,100003.33
2022-12-31T19:32:33.231Z,100005.04
2022-12-31T19:35:04.985Z,100005.50
2022-12-31T19:37:37.106Z,99995.85
2022-12-31T19:40:14.804Z,99997.97
2022-12-31T19:42:46.513Z,99993.77
2022-12-31T19:45:21.304Z,100004.06
2022-12-31T19:47:53.930Z,100006.93
2022-12-31T19:50:27.949Z,100009.42
2022-12-31T19:53:01.822Z,100012.95
2022-12-31T19:55:36.406Z,100006.40
2022-12-31T19:58:06.377Z,100003.25
2022-12-31T20:00:38.276Z,99998.53
2022-12-31T20:03:11.345Z,100003.69
2022-12-31T20:05:43.312Z,99992.91
2022-12-31T20:08:17.195Z,99982.89
2022-12-31T20:10:48.924Z,99980.65
2022-12-31T20:13:20.817Z,99981.36
2022-12-31T20:15:53.724Z,99985.75
2022-12-31T20:18:25.258Z,99985.63
2022-12-31T20:20:57.826Z,99981.36
2022-12-31T20:23:30.037Z,99979.98
2022-12-31T20:26:02.783Z,99990.36
2022-12-31T20:28:35.176Z,99984.76
2022-12-31T20:31:10.348Z,99992.44
2022-12-31T20:33:43.266Z,99996.40
2022-12-31T20:36:17.649Z,99988.67
2022-12-31T20:38:50.528Z,99991.59
2022-12-31T20:41:25.175Z,99998.72
2022-12-31T20:43:55.416Z,100006.35
2022-12-31T20:46:29.711Z,100010.67
2022-12-31T20:49:05.821Z,100012.65
2022-12-31T20:51:38.446Z,100012.02
2022-12-31T20:54:12.097Z,100007.66
2022-12-31T20:56:44.762Z,100004.02
2022-12-31T20:59:17.404Z,100014.05
2022-12-31T21:02:20.457Z,100017.25
2022-12-31T21:04:47.206Z,100015.98
2022-12-31T21:07:19.039Z,100019.52
2022-12-31T21:09:52.443Z,100016.77
2022-12-31T21:12:42.235Z,100010.85
2022-12-31T21:15:23.950Z,100006.65
2022-12-31T21:17:56.006Z,100007.83
2022-12-31T21:20:27.943Z,100008.09
2022-12-31T21:23:00.140Z,100004.79
2022-12-31T21:25:33.653Z,100001.08
2022-12-31T21:28:05.402Z,100003.34
2022-12-31T21:30:39.480Z,100000.77
2022-12-31T21:33:11.281Z,100007.51
2022-12-31T21:35:48.676Z,100007.06
2022-12-31T21:38:25.409Z,100007.83
2022-12-31T21:41:05.167Z,100010.25
2022-12-31T21:43:45.039Z,100007.95
2022-12-31T21:46:16.815Z,100004.16
2022-12-31T21:48:48.817Z,100008.20
2022-12-31T21:51:21.601Z,100003.96
2022-12-31T21:56:44.367Z,99999.55
2022-12-31T21:59:33.582Z,99997.83
2022-12-31T22:02:29.033Z,99995.74
2022-12-31T22:05:02.587Z,99997.11
2022-12-31T22:07:35.590Z,100002.52
2022-12-31T22:10:12.762Z,100008.92
2022-12-31T22:12:48.355Z,100010.67
2022-12-31T22:15:20.728Z,100020.45
2022-12-31T22:17:54.279Z,100011.15
2022-12-31T22:20:27.894Z,100007.27
2022-12-31T22:23:00.380Z,100002.56
2022-12-31T22:25:34.222Z,100007.05
2022-12-31T22:31:08.036Z,100012.13
2022-12-31T22:33:40.504Z,100011.46
2022-12-31T22:36:15.477Z,100010.87
2022-12-31T22:38:51.943Z,100013.27
2022-12-31T22:41:25.792Z,100016.89
2022-12-31T22:44:04.124Z,100018.89
2022-12-31T22:46:37.854Z,100020.90
2022-12-31T22:49:24.780Z,100018.78
2022-12-31T22:52:08.741Z,100009.59
2022-12-31T22:54:41.689Z,100023.86
2022-12-31T22:57:30.553Z,100010.36
2022-12-31T23:00:18.227Z,100020.11
2022-12-31T23:03:27.705Z,100020.59
2022-12-31T23:06:02.505Z,100015.09
2022-12-31T23:08:42.129Z,100008.69
2022-12-31T23:11:13.745Z,99999.12
2022-12-31T23:14:03.928Z,99995.25
2022-12-31T23:16:53.179Z,99999.67
2022-12-31T23:19:44.171Z,100004.80
2022-12-31T23:22:32.748Z,100010.57
2022-12-31T23:25:04.787Z,100006.23
2022-12-31T23:27:36.603Z,100006.17
2022-12-31T23:30:09.819Z,100016.05
2022-12-31T23:32:43.372Z,100019.62
2022-12-31T23:35:17.559Z,100021.02
2022-12-31T23:37:49.390Z,100021.80
2022-12-31T23:40:23.146Z,100010.39
2022-12-31T23:42:55.076Z,100009.17
2022-12-31T23:45:33.142Z,100005.09
2022-12-31T23:48:05.626Z,100011.41
2022-12-31T23:50:41.596Z,100013.19
2022-12-31T23:53:18.114Z,100014.24
2022-12-31T23:55:49.671Z,100014.10
2022-12-31T23:58:21.641Z,100020.85
